Time;durP1;ratioP1;P1;durP2;ratioP2;P2;SDS_P1;SDS_P2;PMS_P1;PMS_P2;Temp;Humidity;BMP_temperature;BMP_pressure;BME280_temperature;BME280_humidity;BME280_pressure;Samples;Min_cycle;Max_cycle;Signal;HPM_P1;HPM_P2
2023/03/24 00:01:21;;;;;;;16.67;10.23;;;;;;;;;;5013504;28;20610;-61
2023/03/24 00:03:50;;;;;;;14.07;9.35;;;;;;;;;;4999321;28;20026;-61
2023/03/24 00:06:17;;;;;;;14.68;9.18;;;;;;;;;;5016460;28;20096;-61
2023/03/24 00:08:46;;;;;;;16.15;9.13;;;;;;;;;;4999316;28;20125;-60
2023/03/24 00:11:13;;;;;;;13.88;8.77;;;;;;;;;;5016812;28;20106;-60
2023/03/24 00:13:39;;;;;;;15.68;9.65;;;;;;;;;;5016809;28;20029;-60
2023/03/24 00:16:09;;;;;;;16.63;9.45;;;;;;;;;;5017640;28;20404;-62
2023/03/24 00:18:35;;;;;;;13.85;8.88;;;;;;;;;;4999841;28;20041;-68
2023/03/24 00:21:01;;;;;;;16.50;10.30;;;;;;;;;;5017062;28;20025;-68
2023/03/24 00:23:31;;;;;;;15.95;9.32;;;;;;;;;;5017392;28;20030;-62
2023/03/24 00:26:01;;;;;;;16.45;10.15;;;;;;;;;;5017175;28;20083;-68
2023/03/24 00:28:30;;;;;;;14.60;9.23;;;;;;;;;;5016755;28;20033;-69
2023/03/24 00:30:56;;;;;;;15.30;10.05;;;;;;;;;;5017021;28;20104;-66
2023/03/24 00:33:22;;;;;;;16.05;9.52;;;;;;;;;;4999323;28;20164;-66
2023/03/24 00:35:48;;;;;;;18.08;10.10;;;;;;;;;;4999196;28;20049;-65
2023/03/24 00:38:13;;;;;;;18.20;10.05;;;;;;;;;;5016891;28;20037;-65
2023/03/24 00:40:43;;;;;;;17.65;9.35;;;;;;;;;;5016810;28;20034;-60
2023/03/24 00:43:09;;;;;;;19.30;10.88;;;;;;;;;;4999880;28;20028;-60
2023/03/24 00:45:35;;;;;;;15.65;10.40;;;;;;;;;;4999431;28;20018;-62
2023/03/24 00:48:00;;;;;;;13.50;9.43;;;;;;;;;;5017089;28;20057;-62
2023/03/24 00:50:26;;;;;;;15.52;9.40;;;;;;;;;;4982817;28;20429;-62
2023/03/24 00:52:52;;;;;;;19.60;10.57;;;;;;;;;;4982848;28;20088;-62
2023/03/24 00:55:20;;;;;;;17.35;9.82;;;;;;;;;;5016603;28;20021;-62
2023/03/24 00:57:48;;;;;;;15.73;9.02;;;;;;;;;;4998843;28;20030;-62
2023/03/24 01:00:19;;;;;;;18.15;8.70;;;;;;;;;;5016099;28;20083;-60
2023/03/24 01:02:52;;;;;;;14.48;9.65;;;;;;;;;;4998933;28;20029;-66
2023/03/24 01:05:19;;;;;;;16.73;9.88;;;;;;;;;;5016507;28;20087;-60
2023/03/24 01:07:50;;;;;;;15.25;9.20;;;;;;;;;;5016237;28;20028;-60
2023/03/24 01:10:18;;;;;;;11.45;8.52;;;;;;;;;;5015956;28;20030;-66
2023/03/24 01:12:44;;;;;;;13.38;8.45;;;;;;;;;;4997996;28;20482;-67
2023/03/24 01:15:15;;;;;;;13.70;9.32;;;;;;;;;;4998258;28;20022;-67
2023/03/24 01:17:40;;;;;;;13.73;9.52;;;;;;;;;;5016369;28;20034;-67
2023/03/24 01:20:09;;;;;;;16.85;8.95;;;;;;;;;;5016354;28;20068;-66
2023/03/24 01:22:36;;;;;;;17.30;10.35;;;;;;;;;;5016177;28;20120;-67
2023/03/24 01:25:08;;;;;;;11.35;8.90;;;;;;;;;;5016101;28;20038;-61
2023/03/24 01:27:34;;;;;;;12.55;9.30;;;;;;;;;;4998440;28;20076;-61
2023/03/24 01:30:00;;;;;;;15.20;9.13;;;;;;;;;;5015986;28;20033;-62
2023/03/24 01:32:26;;;;;;;17.02;10.10;;;;;;;;;;5015756;28;20445;-62
2023/03/24 01:34:51;;;;;;;21.15;11.85;;;;;;;;;;5015710;28;20045;-62
2023/03/24 01:37:17;;;;;;;22.23;11.93;;;;;;;;;;5015738;28;20458;-68
2023/03/24 01:39:42;;;;;;;17.83;11.00;;;;;;;;;;4997927;28;20033;-68
2023/03/24 01:42:16;;;;;;;17.00;9.68;;;;;;;;;;4998320;28;20457;-68
2023/03/24 01:44:41;;;;;;;13.23;9.00;;;;;;;;;;4998048;28;20026;-68
2023/03/24 01:47:07;;;;;;;15.35;8.93;;;;;;;;;;5015599;28;20080;-67
2023/03/24 01:49:35;;;;;;;16.50;9.07;;;;;;;;;;5015885;28;20018;-68
2023/03/24 01:52:03;;;;;;;13.57;8.60;;;;;;;;;;5015755;28;20103;-67
2023/03/24 01:54:37;;;;;;;14.52;8.55;;;;;;;;;;5015467;28;20068;-67
2023/03/24 01:57:08;;;;;;;11.88;8.43;;;;;;;;;;4982112;28;20120;-67
2023/03/24 01:59:38;;;;;;;15.27;8.43;;;;;;;;;;4981762;28;20397;-61
2023/03/24 02:02:41;;;;;;;15.70;9.00;;;;;;;;;;5002791;28;20124;-61
2023/03/24 02:05:09;;;;;;;13.60;8.45;;;;;;;;;;4997480;28;20064;-61
2023/03/24 02:07:51;;;;;;;11.13;8.30;;;;;;;;;;4997340;28;20433;-61
2023/03/24 02:10:18;;;;;;;11.35;7.63;;;;;;;;;;4997783;28;20088;-67
2023/03/24 02:12:44;;;;;;;13.07;8.48;;;;;;;;;;5014741;28;20033;-66
2023/03/24 02:15:11;;;;;;;11.43;8.13;;;;;;;;;;4997424;28;20036;-66
2023/03/24 02:17:47;;;;;;;10.90;7.97;;;;;;;;;;4997598;28;20113;-66
2023/03/24 02:20:21;;;;;;;10.38;7.72;;;;;;;;;;5015055;28;20045;-67
2023/03/24 02:22:50;;;;;;;11.90;7.82;;;;;;;;;;4981470;28;20026;-68
2023/03/24 02:25:18;;;;;;;11.05;8.15;;;;;;;;;;4996783;28;20433;-68
2023/03/24 02:27:54;;;;;;;12.80;8.00;;;;;;;;;;4997306;28;20030;-67
2023/03/24 02:30:25;;;;;;;14.10;8.07;;;;;;;;;;4997417;28;20038;-61
2023/03/24 02:33:10;;;;;;;12.15;8.38;;;;;;;;;;4996992;28;20022;-61
2023/03/24 02:35:52;;;;;;;14.27;8.38;;;;;;;;;;4980864;28;20443;-61
2023/03/24 02:38:36;;;;;;;12.60;8.18;;;;;;;;;;4981023;28;20415;-61
2023/03/24 02:41:02;;;;;;;11.65;7.95;;;;;;;;;;4997310;28;20060;-68
2023/03/24 02:43:29;;;;;;;11.13;8.05;;;;;;;;;;4997443;28;20038;-61
2023/03/24 02:46:17;;;;;;;12.23;7.70;;;;;;;;;;4981119;28;20386;-61
2023/03/24 02:52:17;;;;;;;12.93;7.63;;;;;;;;;;5011110;28;20050;-68
2023/03/24 02:54:48;;;;;;;9.80;7.43;;;;;;;;;;4993478;28;20027;-61
2023/03/24 02:57:17;;;;;;;11.18;7.53;;;;;;;;;;5034190;28;20031;-62
2023/03/24 03:00:22;;;;;;;12.00;7.68;;;;;;;;;;5022729;28;20097;-61
2023/03/24 03:03:12;;;;;;;10.55;7.03;;;;;;;;;;5014583;28;20042;-60
2023/03/24 03:05:44;;;;;;;10.77;7.07;;;;;;;;;;4996882;28;20033;-61
2023/03/24 03:08:16;;;;;;;10.00;7.65;;;;;;;;;;4981161;28;20026;-68
2023/03/24 03:10:43;;;;;;;10.82;7.80;;;;;;;;;;5014041;28;20065;-67
2023/03/24 03:13:15;;;;;;;10.73;7.07;;;;;;;;;;5015434;28;20036;-68
2023/03/24 03:15:43;;;;;;;10.50;7.15;;;;;;;;;;5033886;28;20495;-67
2023/03/24 03:18:13;;;;;;;9.50;6.78;;;;;;;;;;5033935;28;20042;-68
2023/03/24 03:20:41;;;;;;;11.00;6.78;;;;;;;;;;5033953;28;20087;-69
2023/03/24 03:23:10;;;;;;;10.18;6.88;;;;;;;;;;5033967;28;20025;-68
2023/03/24 03:25:41;;;;;;;10.45;6.70;;;;;;;;;;5016254;28;20022;-68
2023/03/24 03:28:07;;;;;;;9.45;6.75;;;;;;;;;;5033600;28;20040;-67
2023/03/24 03:30:36;;;;;;;10.20;6.45;;;;;;;;;;5033335;28;20044;-68
2023/03/24 03:33:07;;;;;;;8.07;6.53;;;;;;;;;;5015944;28;20128;-68
2023/03/24 03:35:37;;;;;;;10.52;6.57;;;;;;;;;;5016235;28;20033;-68
2023/03/24 03:38:09;;;;;;;9.67;6.60;;;;;;;;;;5019532;28;20079;-68
2023/03/24 03:40:41;;;;;;;9.77;6.45;;;;;;;;;;5020056;28;20284;-67
2023/03/24 03:43:13;;;;;;;11.48;6.68;;;;;;;;;;5037875;28;20416;-68
2023/03/24 03:45:39;;;;;;;10.30;6.50;;;;;;;;;;5019936;28;20108;-68
2023/03/24 03:48:04;;;;;;;8.95;5.97;;;;;;;;;;4994385;28;20012;-65
2023/03/24 03:50:30;;;;;;;10.20;6.82;;;;;;;;;;5002195;28;20045;-61
2023/03/24 03:53:00;;;;;;;9.75;6.72;;;;;;;;;;4999862;28;20104;-61
2023/03/24 03:55:26;;;;;;;8.65;6.50;;;;;;;;;;5000050;28;20197;-61
2023/03/24 03:57:52;;;;;;;10.68;7.00;;;;;;;;;;4999993;28;20029;-61
2023/03/24 04:00:25;;;;;;;10.05;6.80;;;;;;;;;;5017504;28;20109;-60
2023/03/24 04:03:35;;;;;;;9.43;6.80;;;;;;;;;;5016792;28;20046;-61
2023/03/24 04:06:21;;;;;;;7.85;6.35;;;;;;;;;;5018521;28;20022;-60
2023/03/24 04:09:08;;;;;;;9.27;7.30;;;;;;;;;;5017722;28;20038;-61
2023/03/24 04:11:37;;;;;;;10.02;6.90;;;;;;;;;;5017508;28;20482;-62
2023/03/24 04:14:24;;;;;;;9.05;7.03;;;;;;;;;;5017604;28;20078;-61
2023/03/24 04:17:10;;;;;;;11.23;8.85;;;;;;;;;;5016019;28;20141;-61
2023/03/24 04:19:42;;;;;;;10.65;8.27;;;;;;;;;;5016180;28;20397;-61
2023/03/24 04:22:08;;;;;;;8.73;6.85;;;;;;;;;;5015870;28;20088;-62
2023/03/24 04:24:48;;;;;;;9.38;6.95;;;;;;;;;;4999775;28;20025;-60
2023/03/24 04:27:20;;;;;;;14.38;9.13;;;;;;;;;;4999559;28;20029;-60
2023/03/24 04:29:46;;;;;;;9.95;7.40;;;;;;;;;;5015429;28;20367;-60
2023/03/24 04:32:13;;;;;;;11.13;7.75;;;;;;;;;;5015453;28;20037;-61
2023/03/24 04:34:44;;;;;;;9.80;7.68;;;;;;;;;;5015876;28;20470;-61
2023/03/24 04:37:27;;;;;;;12.98;9.05;;;;;;;;;;4999414;28;20462;-61
2023/03/24 04:40:00;;;;;;;16.75;11.75;;;;;;;;;;4999129;28;20042;-61
2023/03/24 04:42:36;;;;;;;17.92;13.50;;;;;;;;;;5015536;28;20030;-60
2023/03/24 04:45:02;;;;;;;12.68;9.63;;;;;;;;;;5017120;28;20053;-60
2023/03/24 04:47:53;;;;;;;9.50;7.53;;;;;;;;;;5013557;28;20021;-61
2023/03/24 04:50:35;;;;;;;14.02;7.15;;;;;;;;;;5018905;28;20041;-60
2023/03/24 04:53:06;;;;;;;10.70;7.43;;;;;;;;;;5018712;28;20029;-60
2023/03/24 04:55:50;;;;;;;8.68;7.32;;;;;;;;;;5018609;28;20030;-60
2023/03/24 04:58:35;;;;;;;10.85;7.20;;;;;;;;;;5018444;28;20034;-61
2023/03/24 05:01:02;;;;;;;8.18;6.65;;;;;;;;;;5018513;28;20045;-60
2023/03/24 05:03:29;;;;;;;7.35;6.65;;;;;;;;;;5017953;23;20053;-60
2023/03/24 05:05:55;;;;;;;11.50;7.13;;;;;;;;;;5018015;28;20056;-60
2023/03/24 05:08:20;;;;;;;13.23;7.20;;;;;;;;;;5017754;28;20446;-60
2023/03/24 05:10:47;;;;;;;7.63;6.72;;;;;;;;;;5017190;28;20030;-60
2023/03/24 05:13:13;;;;;;;10.10;7.25;;;;;;;;;;5018665;28;20527;-66
2023/03/24 05:15:44;;;;;;;8.10;6.50;;;;;;;;;;5016282;28;20033;-59
2023/03/24 05:18:24;;;;;;;9.00;6.20;;;;;;;;;;5035454;28;20350;-59
2023/03/24 05:20:49;;;;;;;7.40;6.47;;;;;;;;;;5017666;28;20037;-60
2023/03/24 05:23:19;;;;;;;7.90;5.90;;;;;;;;;;5018359;28;20112;-60
2023/03/24 05:25:46;;;;;;;7.47;5.78;;;;;;;;;;5017894;28;20029;-59
2023/03/24 05:28:12;;;;;;;7.72;6.05;;;;;;;;;;5017607;28;20036;-59
2023/03/24 05:30:38;;;;;;;9.30;6.20;;;;;;;;;;5017701;28;20029;-58
2023/03/24 05:33:23;;;;;;;7.20;6.05;;;;;;;;;;5010417;28;20647;-59
2023/03/24 05:35:49;;;;;;;8.15;6.63;;;;;;;;;;5018108;28;20026;-60
2023/03/24 05:38:15;;;;;;;9.43;6.55;;;;;;;;;;5016639;28;20547;-60
2023/03/24 05:40:43;;;;;;;11.05;6.78;;;;;;;;;;5017129;28;20022;-60
2023/03/24 05:43:11;;;;;;;13.38;8.00;;;;;;;;;;5016690;28;20477;-60
2023/03/24 05:45:41;;;;;;;14.63;8.45;;;;;;;;;;5017066;28;20034;-60
2023/03/24 05:48:08;;;;;;;12.68;8.90;;;;;;;;;;5016573;28;20428;-60
2023/03/24 05:50:55;;;;;;;13.32;9.18;;;;;;;;;;5003225;28;20480;-60
2023/03/24 05:53:21;;;;;;;11.02;7.93;;;;;;;;;;5016737;28;20038;-60
2023/03/24 05:56:05;;;;;;;8.82;6.40;;;;;;;;;;5034412;28;20036;-60
2023/03/24 05:58:51;;;;;;;9.23;6.28;;;;;;;;;;4999032;28;20037;-60
2023/03/24 06:01:17;;;;;;;8.35;5.80;;;;;;;;;;5016233;28;20037;-60
2023/03/24 06:03:44;;;;;;;7.43;6.07;;;;;;;;;;5010206;28;20412;-60
2023/03/24 06:06:15;;;;;;;7.50;6.10;;;;;;;;;;5014469;28;20108;-61
2023/03/24 06:08:43;;;;;;;6.47;5.68;;;;;;;;;;5016139;28;20028;-60
2023/03/24 06:11:09;;;;;;;5.90;5.18;;;;;;;;;;5016533;28;20037;-59
2023/03/24 06:13:44;;;;;;;6.97;5.10;;;;;;;;;;5033756;28;20393;-60
2023/03/24 06:16:10;;;;;;;6.43;5.05;;;;;;;;;;5016231;28;20038;-60
2023/03/24 06:18:51;;;;;;;5.93;4.68;;;;;;;;;;5033699;28;20416;-61
2023/03/24 06:21:37;;;;;;;6.65;5.28;;;;;;;;;;5018951;28;20077;-60
2023/03/24 06:24:03;;;;;;;5.65;5.13;;;;;;;;;;5016823;28;20053;-59
2023/03/24 06:26:30;;;;;;;6.90;4.97;;;;;;;;;;5000777;28;20029;-59
2023/03/24 06:28:57;;;;;;;5.68;4.90;;;;;;;;;;5017122;28;20037;-64
2023/03/24 06:31:26;;;;;;;7.25;5.68;;;;;;;;;;5000505;28;20061;-64
2023/03/24 06:33:53;;;;;;;5.70;5.18;;;;;;;;;;5016402;28;20026;-64
2023/03/24 06:36:18;;;;;;;4.90;4.45;;;;;;;;;;5016500;28;20065;-64
2023/03/24 06:38:44;;;;;;;7.35;4.97;;;;;;;;;;5000410;28;20064;-64
2023/03/24 06:41:14;;;;;;;5.00;4.50;;;;;;;;;;5016322;28;20033;-64
2023/03/24 06:43:40;;;;;;;6.50;5.05;;;;;;;;;;5000112;28;20473;-64
2023/03/24 06:46:05;;;;;;;4.93;4.50;;;;;;;;;;5016694;28;20025;-65
2023/03/24 06:48:32;;;;;;;4.35;3.90;;;;;;;;;;5017914;28;20029;-65
2023/03/24 06:51:05;;;;;;;7.05;5.22;;;;;;;;;;5016528;28;20034;-65
2023/03/24 06:53:31;;;;;;;6.10;4.90;;;;;;;;;;5015171;28;20496;-65
2023/03/24 06:55:56;;;;;;;6.38;5.47;;;;;;;;;;5014873;28;20041;-65
2023/03/24 06:58:24;;;;;;;6.78;4.95;;;;;;;;;;4998477;28;20073;-65
2023/03/24 07:01:06;;;;;;;5.63;4.95;;;;;;;;;;5000207;28;20397;-65
2023/03/24 07:03:43;;;;;;;5.70;5.15;;;;;;;;;;5015206;28;20354;-65
2023/03/24 07:06:11;;;;;;;5.40;4.30;;;;;;;;;;5014938;28;20045;-65
2023/03/24 07:08:37;;;;;;;6.15;5.10;;;;;;;;;;5014035;28;20025;-65
2023/03/24 07:11:03;;;;;;;5.45;5.00;;;;;;;;;;5013887;28;20116;-59
2023/03/24 07:13:29;;;;;;;10.25;5.55;;;;;;;;;;5014560;28;20029;-59
2023/03/24 07:16:01;;;;;;;7.13;5.03;;;;;;;;;;4998951;28;20061;-59
2023/03/24 07:18:27;;;;;;;5.93;4.93;;;;;;;;;;5014141;28;20099;-59
2023/03/24 07:20:57;;;;;;;4.82;4.32;;;;;;;;;;5014099;28;20025;-59
2023/03/24 07:23:26;;;;;;;5.72;5.05;;;;;;;;;;5030866;28;20044;-59
2023/03/24 07:26:09;;;;;;;5.07;4.57;;;;;;;;;;5032958;28;20381;-64
2023/03/24 07:28:35;;;;;;;5.28;4.35;;;;;;;;;;5033257;28;20029;-65
2023/03/24 07:31:02;;;;;;;5.43;4.78;;;;;;;;;;5014360;28;20030;-65
2023/03/24 07:33:28;;;;;;;5.30;4.80;;;;;;;;;;5015195;28;20105;-65
2023/03/24 07:35:55;;;;;;;4.80;4.43;;;;;;;;;;5014938;28;20037;-65
2023/03/24 07:38:21;;;;;;;4.72;4.20;;;;;;;;;;5033166;28;20059;-65
2023/03/24 07:40:49;;;;;;;4.90;4.50;;;;;;;;;;5015081;28;20042;-65
2023/03/24 07:43:15;;;;;;;4.47;4.07;;;;;;;;;;5015378;28;20362;-59
2023/03/24 07:45:57;;;;;;;5.13;4.40;;;;;;;;;;5033283;28;20025;-59
2023/03/24 07:48:26;;;;;;;4.85;4.05;;;;;;;;;;5015027;28;20036;-59
2023/03/24 07:50:52;;;;;;;5.18;3.78;;;;;;;;;;5032567;28;20457;-59
2023/03/24 07:53:40;;;;;;;4.90;4.40;;;;;;;;;;5015312;28;20026;-65
2023/03/24 07:56:06;;;;;;;4.80;4.13;;;;;;;;;;5014825;28;20390;-65
2023/03/24 07:58:34;;;;;;;4.40;4.00;;;;;;;;;;5015081;28;20370;-65
2023/03/24 08:01:12;;;;;;;3.97;3.58;;;;;;;;;;5032893;28;20430;-65
2023/03/24 08:03:42;;;;;;;4.38;3.47;;;;;;;;;;4998627;28;20041;-65
2023/03/24 08:06:14;;;;;;;4.45;4.05;;;;;;;;;;5032498;28;20025;-65
2023/03/24 08:08:50;;;;;;;6.18;4.30;;;;;;;;;;5031879;28;20061;-65
2023/03/24 08:11:15;;;;;;;3.53;3.15;;;;;;;;;;5032125;28;20038;-72
2023/03/24 08:13:41;;;;;;;4.25;3.95;;;;;;;;;;5032131;28;20025;-67
2023/03/24 08:16:06;;;;;;;4.90;3.83;;;;;;;;;;5014746;28;20033;-59
2023/03/24 08:18:33;;;;;;;3.97;3.53;;;;;;;;;;5032001;28;20053;-66
2023/03/24 08:21:00;;;;;;;3.58;3.28;;;;;;;;;;5014230;28;20034;-59
2023/03/24 08:23:26;;;;;;;4.25;3.85;;;;;;;;;;5033848;28;20018;-66
2023/03/24 08:25:51;;;;;;;2.97;2.78;;;;;;;;;;5017751;28;20029;-67
2023/03/24 08:28:17;;;;;;;4.53;2.70;;;;;;;;;;5035692;28;20029;-61
2023/03/24 08:30:43;;;;;;;3.80;3.40;;;;;;;;;;5035773;28;20065;-70
2023/03/24 08:33:10;;;;;;;4.15;3.15;;;;;;;;;;5035570;28;20033;-69
2023/03/24 08:35:38;;;;;;;4.13;3.75;;;;;;;;;;5035178;28;20026;-71
2023/03/24 08:38:04;;;;;;;3.05;2.85;;;;;;;;;;5017561;28;20064;-69
2023/03/24 08:40:30;;;;;;;4.18;3.17;;;;;;;;;;5035179;28;20469;-72
2023/03/24 08:42:57;;;;;;;2.35;2.20;;;;;;;;;;5035456;28;20028;-71
2023/03/24 08:45:26;;;;;;;3.70;3.40;;;;;;;;;;5035643;28;20053;-71
2023/03/24 08:47:51;;;;;;;2.92;2.78;;;;;;;;;;5035495;28;20458;-62
2023/03/24 08:50:20;;;;;;;3.80;2.75;;;;;;;;;;5035845;28;20033;-62
2023/03/24 08:52:47;;;;;;;3.05;2.85;;;;;;;;;;5017741;28;20029;-62
2023/03/24 08:55:13;;;;;;;3.08;2.85;;;;;;;;;;5035392;28;20025;-62
2023/03/24 08:57:38;;;;;;;4.45;3.58;;;;;;;;;;5035708;28;20361;-62
2023/03/24 09:00:13;;;;;;;2.80;2.45;;;;;;;;;;5001208;28;20036;-63
2023/03/24 09:02:40;;;;;;;2.60;2.22;;;;;;;;;;5035063;28;20048;-63
2023/03/24 09:05:06;;;;;;;3.72;3.13;;;;;;;;;;5034934;28;20021;-63
2023/03/24 09:07:31;;;;;;;2.67;2.47;;;;;;;;;;5035689;28;20389;-63
2023/03/24 09:09:57;;;;;;;2.90;2.70;;;;;;;;;;5017837;28;20018;-63
2023/03/24 09:12:22;;;;;;;2.75;2.53;;;;;;;;;;5035576;28;20037;-62
2023/03/24 09:14:48;;;;;;;2.72;2.38;;;;;;;;;;5017608;28;20032;-68
2023/03/24 09:17:14;;;;;;;2.92;2.72;;;;;;;;;;5018003;28;20025;-67
2023/03/24 09:19:39;;;;;;;2.45;2.33;;;;;;;;;;5035337;28;20025;-66
2023/03/24 09:22:06;;;;;;;3.35;3.05;;;;;;;;;;5035219;28;20080;-66
2023/03/24 09:24:31;;;;;;;2.72;2.53;;;;;;;;;;5017008;28;20079;-66
2023/03/24 09:26:57;;;;;;;2.55;2.35;;;;;;;;;;5017249;28;20017;-66
2023/03/24 09:29:22;;;;;;;2.72;2.33;;;;;;;;;;5035107;28;20474;-66
2023/03/24 09:31:47;;;;;;;2.78;2.58;;;;;;;;;;5035171;28;20025;-66
2023/03/24 09:34:13;;;;;;;3.08;2.65;;;;;;;;;;5016360;28;20421;-66
2023/03/24 09:36:38;;;;;;;3.35;2.17;;;;;;;;;;5035210;28;20079;-66
2023/03/24 09:39:03;;;;;;;2.40;2.20;;;;;;;;;;5017252;28;20041;-66
2023/03/24 09:41:30;;;;;;;2.45;2.25;;;;;;;;;;5016854;28;20029;-66
2023/03/24 09:44:14;;;;;;;4.30;2.33;;;;;;;;;;5034637;28;20458;-66
2023/03/24 09:46:42;;;;;;;2.60;2.40;;;;;;;;;;5016767;28;20078;-66
2023/03/24 09:49:15;;;;;;;2.72;2.47;;;;;;;;;;5034463;28;20101;-66
2023/03/24 09:51:44;;;;;;;2.83;2.50;;;;;;;;;;5000344;28;20091;-66
2023/03/24 09:54:10;;;;;;;3.58;2.35;;;;;;;;;;5034769;28;20112;-66
2023/03/24 09:56:36;;;;;;;2.47;2.28;;;;;;;;;;5034960;28;20109;-66
2023/03/24 09:59:05;;;;;;;2.90;2.67;;;;;;;;;;5034985;28;20225;-66
2023/03/24 10:01:30;;;;;;;2.67;2.47;;;;;;;;;;5035449;28;20044;-66
2023/03/24 10:06:34;;;;;;;2.22;2.13;;;;;;;;;;4973532;28;20517;-66
2023/03/24 10:09:02;;;;;;;2.90;2.60;;;;;;;;;;4975053;28;20529;-72
2023/03/24 10:11:35;;;;;;;3.03;2.58;;;;;;;;;;4975392;28;20030;-72
2023/03/24 10:14:28;;;;;;;2.58;2.38;;;;;;;;;;4958635;28;20049;-72
2023/03/24 10:16:58;;;;;;;3.97;2.72;;;;;;;;;;4938267;29;20039;-72
2023/03/24 10:19:31;;;;;;;2.55;2.35;;;;;;;;;;4955995;29;20039;-73
2023/03/24 10:22:09;;;;;;;2.60;2.40;;;;;;;;;;4955750;29;20046;-73
2023/03/24 10:24:38;;;;;;;2.92;2.42;;;;;;;;;;4923207;29;20082;-72
2023/03/24 10:27:16;;;;;;;2.95;2.75;;;;;;;;;;4942181;28;20022;-73
2023/03/24 10:29:44;;;;;;;2.92;2.70;;;;;;;;;;4958357;28;20030;-73
2023/03/24 10:32:19;;;;;;;3.03;2.83;;;;;;;;;;4975509;28;20528;-73
2023/03/24 10:34:47;;;;;;;3.15;2.95;;;;;;;;;;4975463;28;20046;-72
2023/03/24 10:37:13;;;;;;;3.17;2.92;;;;;;;;;;4975369;28;20029;-73
2023/03/24 10:39:38;;;;;;;3.55;2.70;;;;;;;;;;4975446;28;20533;-73
2023/03/24 10:42:04;;;;;;;3.72;3.33;;;;;;;;;;4975313;28;20035;-73
2023/03/24 10:44:29;;;;;;;3.60;3.30;;;;;;;;;;4975247;28;20078;-73
2023/03/24 10:46:57;;;;;;;3.00;2.75;;;;;;;;;;4974985;28;20506;-73
2023/03/24 10:49:23;;;;;;;3.90;3.60;;;;;;;;;;4975078;28;20443;-73
2023/03/24 10:51:49;;;;;;;4.22;3.88;;;;;;;;;;4958056;28;20140;-73
2023/03/24 10:54:33;;;;;;;4.32;3.75;;;;;;;;;;4975142;28;20030;-73
2023/03/24 10:56:59;;;;;;;4.35;3.95;;;;;;;;;;4974399;28;20035;-73
2023/03/24 10:59:43;;;;;;;3.42;2.85;;;;;;;;;;4957439;28;20517;-73
2023/03/24 11:02:09;;;;;;;4.10;3.80;;;;;;;;;;4975082;28;20041;-73
2023/03/24 11:04:38;;;;;;;3.97;3.58;;;;;;;;;;4957537;28;20117;-73
2023/03/24 11:07:05;;;;;;;4.38;3.85;;;;;;;;;;4974876;28;20054;-66
2023/03/24 11:09:50;;;;;;;4.10;2.95;;;;;;;;;;4989844;28;20053;-66
2023/03/24 11:12:20;;;;;;;4.35;3.95;;;;;;;;;;4970610;28;20146;-66
2023/03/24 11:14:46;;;;;;;4.63;3.92;;;;;;;;;;4974569;28;20043;-66
2023/03/24 11:17:24;;;;;;;3.90;3.53;;;;;;;;;;4974844;28;20504;-65
2023/03/24 11:19:51;;;;;;;4.00;3.63;;;;;;;;;;4974649;28;20031;-66
2023/03/24 11:22:16;;;;;;;3.15;2.78;;;;;;;;;;4974586;28;20466;-66
2023/03/24 11:24:42;;;;;;;4.80;3.45;;;;;;;;;;4956569;28;20031;-66
2023/03/24 11:27:11;;;;;;;3.53;3.22;;;;;;;;;;4974335;28;20360;-66
2023/03/24 11:29:38;;;;;;;3.58;3.10;;;;;;;;;;4974523;28;20038;-66
2023/03/24 11:32:12;;;;;;;3.63;3.33;;;;;;;;;;4974692;28;20386;-66
2023/03/24 11:34:41;;;;;;;3.80;3.45;;;;;;;;;;4974749;28;20073;-66
2023/03/24 11:37:12;;;;;;;3.30;3.00;;;;;;;;;;4974380;28;20030;-66
2023/03/24 11:39:37;;;;;;;3.70;3.38;;;;;;;;;;4956508;28;20042;-65
2023/03/24 11:42:09;;;;;;;3.80;3.38;;;;;;;;;;4956787;28;20042;-66
2023/03/24 11:44:37;;;;;;;4.03;3.53;;;;;;;;;;4957255;28;20177;-73
2023/03/24 11:47:15;;;;;;;3.50;3.20;;;;;;;;;;4974688;28;20026;-73
2023/03/24 11:49:43;;;;;;;3.33;2.75;;;;;;;;;;4957230;28;20026;-72
2023/03/24 11:52:18;;;;;;;3.15;2.85;;;;;;;;;;4957148;28;20038;-73
2023/03/24 11:54:43;;;;;;;2.95;2.65;;;;;;;;;;4974578;28;20110;-73
2023/03/24 11:57:12;;;;;;;3.08;2.83;;;;;;;;;;4974912;28;20121;-71
2023/03/24 11:59:50;;;;;;;2.53;2.33;;;;;;;;;;4960721;28;20450;-71
2023/03/24 12:02:38;;;;;;;3.58;3.17;;;;;;;;;;4960972;28;20038;-71
2023/03/24 12:05:22;;;;;;;2.90;2.70;;;;;;;;;;4960728;28;20057;-71
2023/03/24 12:07:52;;;;;;;3.22;2.85;;;;;;;;;;4959924;28;20030;-71
2023/03/24 12:10:17;;;;;;;2.60;2.40;;;;;;;;;;4961193;28;20050;-71
2023/03/24 12:12:42;;;;;;;3.72;2.80;;;;;;;;;;4978913;28;20042;-62
2023/03/24 12:15:11;;;;;;;3.85;3.10;;;;;;;;;;4977705;28;20085;-62
2023/03/24 12:17:40;;;;;;;3.63;3.33;;;;;;;;;;4977480;28;20459;-62
2023/03/24 12:20:21;;;;;;;2.85;2.55;;;;;;;;;;4977731;28;20035;-72
2023/03/24 12:22:51;;;;;;;3.55;3.13;;;;;;;;;;4978264;28;20031;-72
2023/03/24 12:25:22;;;;;;;3.22;2.72;;;;;;;;;;4977739;28;20433;-72
2023/03/24 12:28:03;;;;;;;2.95;2.75;;;;;;;;;;4977934;28;20030;-71
2023/03/24 12:30:29;;;;;;;;;;;;;;;;;;4977759;28;20030;-71
2023/03/24 12:33:18;;;;;;;3.47;2.95;;;;;;;;;;4977874;28;19957;-70
2023/03/24 12:35:56;;;;;;;3.45;2.70;;;;;;;;;;4950234;28;20075;-62
2023/03/24 12:38:40;;;;;;;2.83;2.63;;;;;;;;;;4960287;28;20458;-62
2023/03/24 12:41:29;;;;;;;2.92;2.60;;;;;;;;;;4959965;28;20030;-62
2023/03/24 12:44:06;;;;;;;2.97;2.53;;;;;;;;;;4949457;28;20518;-62
2023/03/24 12:46:31;;;;;;;4.60;3.03;;;;;;;;;;4976717;28;20030;-62
2023/03/24 12:49:09;;;;;;;2.83;2.55;;;;;;;;;;4943585;28;20078;-62
2023/03/24 12:51:45;;;;;;;2.88;2.67;;;;;;;;;;4977107;28;20042;-62
2023/03/24 12:54:30;;;;;;;3.15;2.55;;;;;;;;;;4977152;28;20113;-62
2023/03/24 12:57:04;;;;;;;2.97;2.78;;;;;;;;;;4976426;28;20031;-62
2023/03/24 12:59:32;;;;;;;3.08;2.50;;;;;;;;;;4977101;28;20049;-61
2023/03/24 13:02:01;;;;;;;3.05;2.72;;;;;;;;;;4977031;28;20037;-62
2023/03/24 13:04:32;;;;;;;2.83;2.38;;;;;;;;;;4976098;28;20053;-62
2023/03/24 13:07:13;;;;;;;3.83;2.78;;;;;;;;;;4976838;28;20047;-62
2023/03/24 13:09:51;;;;;;;2.55;2.10;;;;;;;;;;4975979;28;20030;-61
2023/03/24 13:12:26;;;;;;;2.65;2.45;;;;;;;;;;4943229;28;20066;-62
2023/03/24 13:15:10;;;;;;;3.42;2.90;;;;;;;;;;4976745;28;20053;-62
2023/03/24 13:17:39;;;;;;;3.03;2.75;;;;;;;;;;4985699;28;20030;-62
2023/03/24 13:20:34;;;;;;;10.80;5.13;;;;;;;;;;4996579;28;20038;-62
2023/03/24 13:23:13;;;;;;;3.92;2.50;;;;;;;;;;4961539;28;20061;-73
2023/03/24 13:25:50;;;;;;;3.25;2.95;;;;;;;;;;4978517;28;20030;-73
2023/03/24 13:28:20;;;;;;;3.45;3.03;;;;;;;;;;4962282;28;20062;-73
2023/03/24 13:30:46;;;;;;;3.08;2.88;;;;;;;;;;4995964;28;20027;-73
2023/03/24 13:33:14;;;;;;;3.13;2.83;;;;;;;;;;4978052;28;20437;-73
2023/03/24 13:35:43;;;;;;;5.18;2.28;;;;;;;;;;4977533;28;20049;-73
2023/03/24 13:38:38;;;;;;;3.90;2.45;;;;;;;;;;4995179;28;20038;-74
2023/03/24 13:41:04;;;;;;;2.53;2.38;;;;;;;;;;4960522;28;20039;-71
2023/03/24 13:43:30;;;;;;;3.33;3.13;;;;;;;;;;4995896;28;20050;-75
2023/03/24 13:46:00;;;;;;;2.88;2.67;;;;;;;;;;4978277;28;20541;-75
2023/03/24 13:48:29;;;;;;;2.80;2.35;;;;;;;;;;4978047;28;20500;-75
2023/03/24 13:50:54;;;;;;;3.72;3.10;;;;;;;;;;4995070;28;20042;-75
2023/03/24 13:53:27;;;;;;;3.33;2.67;;;;;;;;;;4978055;28;20085;-75
2023/03/24 13:55:53;;;;;;;3.53;2.65;;;;;;;;;;4995470;28;20118;-75
2023/03/24 13:58:20;;;;;;;4.35;2.90;;;;;;;;;;4977903;28;20102;-75
2023/03/24 14:01:19;;;;;;;6.70;3.00;;;;;;;;;;4994573;28;20033;-72
2023/03/24 14:03:45;;;;;;;3.13;2.90;;;;;;;;;;4947575;28;20043;-73
2023/03/24 14:06:30;;;;;;;3.53;3.15;;;;;;;;;;4974462;28;20494;-73
2023/03/24 14:09:14;;;;;;;3.75;2.75;;;;;;;;;;4973698;28;20078;-73
2023/03/24 14:11:41;;;;;;;3.35;3.00;;;;;;;;;;4975295;28;20496;-73
2023/03/24 14:14:15;;;;;;;5.20;2.85;;;;;;;;;;4957529;28;20037;-73
2023/03/24 14:16:48;;;;;;;4.65;3.30;;;;;;;;;;4958084;28;20123;-73
2023/03/24 14:19:22;;;;;;;4.35;3.72;;;;;;;;;;4975344;28;20034;-65
2023/03/24 14:22:17;;;;;;;4.18;3.85;;;;;;;;;;4975125;28;20126;-73
2023/03/24 14:24:44;;;;;;;4.72;3.50;;;;;;;;;;4957342;28;20545;-65
2023/03/24 14:27:41;;;;;;;4.20;3.40;;;;;;;;;;4974150;28;20470;-66
2023/03/24 14:30:09;;;;;;;6.25;3.22;;;;;;;;;;4959458;28;20075;-66
2023/03/24 14:32:39;;;;;;;4.80;3.40;;;;;;;;;;4975927;28;20082;-66
2023/03/24 14:35:05;;;;;;;4.10;3.78;;;;;;;;;;4975540;28;20031;-66
2023/03/24 14:37:31;;;;;;;3.65;3.42;;;;;;;;;;4957657;28;20118;-65
2023/03/24 14:39:57;;;;;;;3.97;3.53;;;;;;;;;;4972778;28;20101;-65
2023/03/24 14:42:34;;;;;;;3.92;3.50;;;;;;;;;;4956999;28;20102;-65
2023/03/24 14:45:26;;;;;;;4.15;3.75;;;;;;;;;;4957298;28;20086;-64
2023/03/24 14:47:59;;;;;;;4.90;3.25;;;;;;;;;;4944877;28;20039;-72
2023/03/24 14:50:25;;;;;;;3.72;3.42;;;;;;;;;;4984488;28;20077;-73
2023/03/24 14:52:58;;;;;;;6.10;3.65;;;;;;;;;;4976701;28;20018;-73
2023/03/24 14:55:24;;;;;;;5.55;3.50;;;;;;;;;;4992365;28;20389;-73
2023/03/24 14:58:08;;;;;;;4.15;3.75;;;;;;;;;;4980297;23;20046;-72
2023/03/24 15:00:39;;;;;;;3.75;3.30;;;;;;;;;;4955261;28;20030;-66
2023/03/24 15:03:16;;;;;;;5.65;3.75;;;;;;;;;;4975182;28;20034;-66
2023/03/24 15:05:42;;;;;;;4.30;3.35;;;;;;;;;;4974819;28;20030;-67
2023/03/24 15:08:10;;;;;;;3.78;3.40;;;;;;;;;;4957466;28;20097;-66